Time;durP1;ratioP1;P1;durP2;ratioP2;P2;SDS_P1;SDS_P2;PMS_P1;PMS_P2;Temp;Humidity;BMP_temperature;BMP_pressure;BME280_temperature;BME280_humidity;BME280_pressure;Samples;Min_cycle;Max_cycle;Signal;HPM_P1;HPM_P2
2023/01/06 00:00:10;;;;;;;6.72;4.03;;;9.40;99.90;;;;;;5035770;28;20018;-76
2023/01/06 00:02:36;;;;;;;7.35;3.72;;;9.40;99.90;;;;;;5025499;28;20386;-76
2023/01/06 00:05:02;;;;;;;8.05;4.50;;;9.40;99.90;;;;;;5015647;28;20022;-77
2023/01/06 00:07:27;;;;;;;8.65;3.78;;;9.40;99.90;;;;;;5017899;28;20044;-76
2023/01/06 00:09:59;;;;;;;7.10;3.38;;;9.40;99.90;;;;;;5035699;28;20058;-76
2023/01/06 00:12:25;;;;;;;4.85;3.05;;;9.40;99.90;;;;;;5017754;28;20022;-76
2023/01/06 00:14:51;;;;;;;4.80;3.45;;;9.40;99.90;;;;;;5035090;28;20113;-77
2023/01/06 00:17:17;;;;;;;5.63;3.13;;;9.40;99.90;;;;;;5017088;28;20041;-77
2023/01/06 00:19:43;;;;;;;5.53;2.53;;;9.40;99.90;;;;;;5034275;28;20021;-77
2023/01/06 00:22:11;;;;;;;8.02;3.05;;;9.40;99.90;;;;;;5019182;28;20475;-77
2023/01/06 00:24:40;;;;;;;4.82;2.85;;;9.40;99.90;;;;;;5017165;28;20026;-77
2023/01/06 00:27:05;;;;;;;4.47;2.80;;;9.40;99.90;;;;;;5034426;28;20116;-77
2023/01/06 00:29:31;;;;;;;6.50;2.97;;;9.40;99.90;;;;;;5027467;28;20030;-76
2023/01/06 00:32:06;;;;;;;5.20;2.72;;;9.40;99.90;;;;;;5017951;28;20120;-76
2023/01/06 00:34:34;;;;;;;6.30;3.22;;;9.40;99.90;;;;;;5034486;28;20512;-77
2023/01/06 00:37:00;;;;;;;5.03;2.83;;;9.40;99.90;;;;;;5017769;28;20021;-77
2023/01/06 00:39:29;;;;;;;4.82;2.90;;;9.40;99.90;;;;;;5033988;28;20039;-77
2023/01/06 00:42:03;;;;;;;4.72;2.70;;;9.40;99.90;;;;;;5035688;28;20029;-77
2023/01/06 00:44:37;;;;;;;5.85;3.33;;;9.40;99.90;;;;;;5023807;28;20120;-77
2023/01/06 00:47:05;;;;;;;6.28;3.20;;;9.40;99.90;;;;;;5029304;28;20022;-77
2023/01/06 00:49:35;;;;;;;7.63;2.95;;;9.40;99.90;;;;;;5017401;28;20033;-77
2023/01/06 00:52:10;;;;;;;4.63;2.70;;;9.40;99.90;;;;;;5035372;28;20037;-77
2023/01/06 00:54:36;;;;;;;5.78;2.72;;;9.30;99.90;;;;;;5031867;28;20034;-77
2023/01/06 00:57:04;;;;;;;5.03;2.78;;;9.40;99.90;;;;;;5007507;28;20029;-77
2023/01/06 00:59:29;;;;;;;6.10;2.53;;;9.40;99.90;;;;;;5013933;28;20398;-77
2023/01/06 01:01:57;;;;;;;4.30;2.17;;;9.30;99.90;;;;;;5039783;28;20100;-77
2023/01/06 01:04:24;;;;;;;4.82;2.70;;;9.30;99.90;;;;;;5041126;28;20049;-77
2023/01/06 01:06:51;;;;;;;6.47;2.97;;;9.30;99.90;;;;;;5033303;28;20043;-76
2023/01/06 01:09:20;;;;;;;6.28;3.30;;;9.30;99.90;;;;;;5024049;28;20463;-76
2023/01/06 01:14:31;;;;;;;5.60;3.05;;;9.30;99.90;;;;;;5058268;23;20112;-72
2023/01/06 01:17:03;;;;;;;7.85;3.22;;;9.30;99.90;;;;;;5054977;28;20032;-73
2023/01/06 01:19:29;;;;;;;5.03;3.08;;;9.30;99.90;;;;;;5055046;28;20037;-73
2023/01/06 01:21:55;;;;;;;5.88;3.40;;;9.30;99.90;;;;;;5073042;28;20029;-73
2023/01/06 01:24:21;;;;;;;7.95;3.50;;;9.30;99.90;;;;;;5055220;28;20536;-73
2023/01/06 01:26:47;;;;;;;7.43;2.72;;;9.30;99.90;;;;;;5053554;28;20024;-73
2023/01/06 01:29:17;;;;;;;6.90;3.13;;;9.30;99.90;;;;;;5055403;28;20039;-73
2023/01/06 01:31:46;;;;;;;4.72;2.60;;;9.30;99.90;;;;;;5026900;28;20082;-73
2023/01/06 01:34:13;;;;;;;5.72;2.35;;;9.20;99.90;;;;;;5023326;28;20840;-74
2023/01/06 01:36:41;;;;;;;5.05;3.00;;;9.30;99.90;;;;;;5036348;28;20040;-73
2023/01/06 01:39:07;;;;;;;6.28;2.95;;;9.20;99.90;;;;;;5027442;28;20022;-73
2023/01/06 01:41:33;;;;;;;4.97;2.67;;;9.30;99.90;;;;;;5048566;28;20064;-73
2023/01/06 01:44:01;;;;;;;5.68;3.28;;;9.30;99.90;;;;;;5035936;28;20055;-73
2023/01/06 01:46:38;;;;;;;6.03;3.25;;;9.30;99.90;;;;;;5052968;28;20493;-72
2023/01/06 01:49:23;;;;;;;9.60;3.88;;;9.30;99.90;;;;;;5053448;28;20481;-73
2023/01/06 01:51:55;;;;;;;7.18;3.10;;;9.30;99.90;;;;;;5065286;28;20035;-73
2023/01/06 01:54:27;;;;;;;4.97;3.25;;;9.30;99.90;;;;;;5044531;28;20033;-74
2023/01/06 01:57:15;;;;;;;6.90;3.70;;;9.30;99.90;;;;;;5068529;28;20047;-74
2023/01/06 01:59:54;;;;;;;7.32;4.00;;;9.20;99.90;;;;;;5055876;28;20040;-74
2023/01/06 02:02:20;;;;;;;9.73;4.38;;;9.20;99.90;;;;;;5044188;28;20025;-73
2023/01/06 02:04:52;;;;;;;7.82;3.83;;;9.30;99.90;;;;;;5032453;28;20018;-74
2023/01/06 02:07:18;;;;;;;8.02;4.10;;;9.20;99.90;;;;;;5032618;28;20112;-74
2023/01/06 02:09:52;;;;;;;6.78;4.15;;;9.20;99.90;;;;;;5032486;28;20546;-73
2023/01/06 02:12:17;;;;;;;7.65;3.80;;;9.20;99.90;;;;;;5032688;28;20025;-74
2023/01/06 02:14:49;;;;;;;8.02;4.22;;;9.20;99.90;;;;;;5014631;28;20090;-74
2023/01/06 02:17:31;;;;;;;6.68;3.45;;;9.20;99.90;;;;;;5014636;28;20079;-74
2023/01/06 02:20:34;;;;;;;7.95;3.75;;;9.20;99.90;;;;;;5014635;28;20053;-74
2023/01/06 02:23:32;;;;;;;7.25;3.67;;;9.20;99.90;;;;;;5032335;28;20049;-74
2023/01/06 02:26:34;;;;;;;7.57;3.80;;;9.20;99.90;;;;;;4998702;28;20079;-74
2023/01/06 02:29:30;;;;;;;6.50;3.83;;;9.20;99.90;;;;;;5032167;28;20032;-74
2023/01/06 02:32:05;;;;;;;5.78;3.17;;;9.20;99.90;;;;;;5031867;28;20030;-74
2023/01/06 02:35:03;;;;;;;4.10;2.90;;;9.20;99.90;;;;;;5030832;28;20460;-74
2023/01/06 02:37:50;;;;;;;7.95;3.67;;;9.20;99.90;;;;;;5031092;28;20040;-74
2023/01/06 02:40:44;;;;;;;6.20;3.33;;;9.20;99.90;;;;;;5032221;28;20025;-74
2023/01/06 02:43:33;;;;;;;6.75;3.15;;;9.20;99.90;;;;;;5001601;28;20022;-73
2023/01/06 02:46:17;;;;;;;6.03;3.00;;;9.30;99.90;;;;;;5029666;28;20029;-74
2023/01/06 02:49:11;;;;;;;6.82;2.53;;;9.20;99.90;;;;;;5020191;28;20489;-73
2023/01/06 02:51:57;;;;;;;5.10;2.70;;;9.30;99.90;;;;;;5040311;28;20030;-74
2023/01/06 02:54:48;;;;;;;4.07;2.00;;;9.20;99.90;;;;;;5051734;28;20029;-74
2023/01/06 02:57:26;;;;;;;3.80;1.88;;;9.20;99.90;;;;;;5052162;28;20090;-74
2023/01/06 03:00:12;;;;;;;2.53;1.83;;;9.20;99.90;;;;;;5051885;28;20021;-73
2023/01/06 03:03:14;;;;;;;4.50;1.88;;;9.30;99.90;;;;;;5003932;28;20029;-74
2023/01/06 03:05:43;;;;;;;9.20;2.65;;;9.30;99.90;;;;;;5033760;28;20024;-73
2023/01/06 03:08:14;;;;;;;4.30;2.08;;;9.30;99.90;;;;;;5033752;28;20109;-74
2023/01/06 03:10:44;;;;;;;4.03;2.25;;;9.20;99.90;;;;;;5042763;28;20021;-74
2023/01/06 03:13:18;;;;;;;4.10;2.40;;;9.30;99.90;;;;;;5071886;28;20059;-74
2023/01/06 03:15:43;;;;;;;5.20;2.75;;;9.30;99.90;;;;;;5049157;28;20365;-73
2023/01/06 03:18:09;;;;;;;5.93;2.70;;;9.30;99.90;;;;;;5041331;28;20108;-74
2023/01/06 03:20:41;;;;;;;11.10;2.67;;;9.20;99.90;;;;;;5056753;28;20029;-73
2023/01/06 03:23:07;;;;;;;8.02;2.67;;;9.20;99.90;;;;;;5045440;28;20021;-73
2023/01/06 03:25:33;;;;;;;7.75;3.05;;;9.20;99.90;;;;;;5049797;28;20100;-73
2023/01/06 03:28:04;;;;;;;8.27;2.67;;;9.20;99.90;;;;;;5034237;28;20033;-73
2023/01/06 03:31:15;;;;;;;7.18;2.88;;;9.20;99.90;;;;;;5046918;28;20029;-73
2023/01/06 03:34:18;;;;;;;3.70;2.30;;;9.10;99.90;;;;;;5032586;28;20017;-73
2023/01/06 03:36:53;;;;;;;4.05;1.80;;;9.10;99.90;;;;;;5030954;28;20067;-73
2023/01/06 03:39:38;;;;;;;4.88;2.58;;;9.10;99.90;;;;;;5051723;28;20029;-74
2023/01/06 03:45:51;;;;;;;3.67;2.10;;;9.00;99.90;;;;;;5055280;28;20071;-73
2023/01/06 03:48:54;;;;;;;3.22;1.80;;;8.90;99.90;;;;;;5037244;28;20489;-74
2023/01/06 03:51:31;;;;;;;3.38;1.90;;;8.80;99.90;;;;;;5055064;28;20463;-74
2023/01/06 03:54:34;;;;;;;4.20;2.20;;;8.80;99.90;;;;;;5033819;28;20037;-74
2023/01/06 03:57:35;;;;;;;6.47;2.22;;;8.80;99.90;;;;;;5034991;28;20526;-74
2023/01/06 04:00:12;;;;;;;3.47;2.08;;;8.70;99.90;;;;;;5036902;28;20107;-74
2023/01/06 04:02:39;;;;;;;4.68;2.03;;;8.60;99.90;;;;;;5036969;28;20024;-74
2023/01/06 04:05:26;;;;;;;2.53;1.58;;;8.60;99.90;;;;;;5036826;28;20021;-74
2023/01/06 04:08:00;;;;;;;2.35;1.70;;;8.60;99.90;;;;;;5054716;28;20025;-74
2023/01/06 04:10:29;;;;;;;3.88;1.58;;;8.50;99.90;;;;;;5036936;28;20029;-73
2023/01/06 04:12:58;;;;;;;3.83;1.90;;;8.50;99.90;;;;;;5054682;28;20090;-74
2023/01/06 04:15:31;;;;;;;2.60;1.63;;;8.50;99.90;;;;;;5054422;28;20029;-73
2023/01/06 04:18:06;;;;;;;5.18;1.80;;;8.50;99.90;;;;;;5036669;28;20036;-72
2023/01/06 04:20:34;;;;;;;3.10;1.58;;;8.40;99.90;;;;;;5054654;28;20029;-73
2023/01/06 04:23:00;;;;;;;4.15;1.65;;;8.40;99.90;;;;;;5054446;28;20017;-73
2023/01/06 04:25:26;;;;;;;3.63;1.40;;;8.40;99.90;;;;;;5054458;28;20027;-72
2023/01/06 04:28:06;;;;;;;3.33;1.80;;;8.40;99.90;;;;;;5054284;28;20056;-73
2023/01/06 04:30:35;;;;;;;3.75;1.80;;;8.40;99.90;;;;;;5054375;28;20485;-72
2023/01/06 04:33:07;;;;;;;3.92;1.70;;;8.30;99.90;;;;;;5054357;28;20025;-73
2023/01/06 04:35:32;;;;;;;2.75;1.60;;;8.30;99.90;;;;;;5036318;28;20028;-73
2023/01/06 04:38:02;;;;;;;4.20;1.75;;;8.30;99.90;;;;;;5036640;28;20021;-73
2023/01/06 04:40:30;;;;;;;2.47;1.38;;;8.30;99.90;;;;;;5035902;28;20033;-72
2023/01/06 04:43:05;;;;;;;2.35;1.30;;;8.30;99.90;;;;;;5054152;28;20103;-72
2023/01/06 04:45:32;;;;;;;3.03;1.65;;;8.20;99.90;;;;;;5054207;28;20028;-72
2023/01/06 04:48:01;;;;;;;2.25;1.33;;;8.20;99.90;;;;;;5054010;28;20063;-72
2023/01/06 04:50:32;;;;;;;3.47;1.08;;;8.20;99.90;;;;;;5036295;28;20028;-73
2023/01/06 04:52:58;;;;;;;2.30;1.20;;;8.20;99.90;;;;;;5053120;28;20044;-72
2023/01/06 04:55:36;;;;;;;1.65;1.17;;;8.10;99.90;;;;;;5053957;28;20470;-73
2023/01/06 04:58:04;;;;;;;3.67;1.08;;;8.10;99.90;;;;;;5054049;28;20035;-73
2023/01/06 05:00:36;;;;;;;3.58;1.50;;;8.10;99.90;;;;;;5053822;28;20438;-74
2023/01/06 05:03:01;;;;;;;1.40;0.80;;;8.10;99.90;;;;;;5038172;28;20056;-74
2023/01/06 05:05:27;;;;;;;1.92;1.05;;;8.00;99.90;;;;;;5055798;28;20024;-73
2023/01/06 05:07:53;;;;;;;2.92;1.33;;;8.00;99.90;;;;;;5073702;28;20389;-73
2023/01/06 05:10:34;;;;;;;1.85;1.05;;;8.00;99.90;;;;;;5047994;28;20060;-72
2023/01/06 05:13:00;;;;;;;2.50;1.23;;;8.00;99.90;;;;;;5057684;28;20025;-73
2023/01/06 05:15:28;;;;;;;2.38;1.23;;;7.90;99.90;;;;;;5045032;28;20456;-72
2023/01/06 05:18:00;;;;;;;3.33;1.33;;;7.90;99.90;;;;;;5024248;28;20029;-73
2023/01/06 05:20:44;;;;;;;2.92;1.35;;;7.90;99.90;;;;;;5033635;28;20060;-72
2023/01/06 05:23:09;;;;;;;4.20;0.85;;;7.80;99.90;;;;;;5056417;28;20025;-73
2023/01/06 05:25:35;;;;;;;2.30;1.10;;;7.80;99.90;;;;;;5055343;28;20078;-72
2023/01/06 05:28:01;;;;;;;1.52;1.05;;;7.80;99.90;;;;;;5043554;28;20032;-72
2023/01/06 05:30:26;;;;;;;2.72;1.35;;;7.80;99.90;;;;;;5053019;28;20029;-74
2023/01/06 05:32:52;;;;;;;1.67;0.90;;;7.80;99.90;;;;;;5053255;28;20025;-74
2023/01/06 05:35:20;;;;;;;2.28;0.95;;;7.80;99.90;;;;;;5050568;28;20032;-73
2023/01/06 05:37:49;;;;;;;2.65;1.00;;;7.80;99.90;;;;;;5045366;28;20541;-72
2023/01/06 05:40:17;;;;;;;4.05;1.23;;;7.80;99.90;;;;;;5052824;28;20021;-73
2023/01/06 05:42:43;;;;;;;2.15;1.20;;;7.70;99.90;;;;;;5029706;28;20023;-72
2023/01/06 05:45:09;;;;;;;2.95;1.17;;;7.80;99.90;;;;;;5041039;28;20028;-73
2023/01/06 05:47:44;;;;;;;1.40;1.00;;;7.80;99.90;;;;;;5019644;28;20032;-73
2023/01/06 05:50:22;;;;;;;2.45;0.93;;;7.80;99.90;;;;;;5042516;28;20056;-73
2023/01/06 05:52:47;;;;;;;2.63;1.00;;;7.80;99.90;;;;;;5050477;28;20040;-73
2023/01/06 05:55:13;;;;;;;2.40;1.30;;;7.80;99.90;;;;;;5033259;28;20359;-74
2023/01/06 05:57:45;;;;;;;3.25;1.48;;;7.80;99.90;;;;;;5046143;28;20061;-73
2023/01/06 06:00:14;;;;;;;3.38;1.20;;;7.70;99.90;;;;;;5052359;28;20024;-73
2023/01/06 06:02:46;;;;;;;3.92;1.40;;;7.70;99.90;;;;;;5049070;28;20030;-73
2023/01/06 06:05:17;;;;;;;2.88;1.50;;;7.70;99.90;;;;;;5026063;28;20029;-73
2023/01/06 06:07:43;;;;;;;2.95;1.30;;;7.70;99.90;;;;;;5048412;28;20029;-74
2023/01/06 06:10:17;;;;;;;2.15;1.00;;;7.70;99.90;;;;;;5050743;28;20044;-74
2023/01/06 06:12:43;;;;;;;1.70;1.05;;;7.70;99.90;;;;;;5044101;28;20085;-73
2023/01/06 06:15:08;;;;;;;2.70;0.90;;;7.60;99.90;;;;;;5046593;28;20029;-73
2023/01/06 06:17:37;;;;;;;3.90;1.23;;;7.60;99.90;;;;;;5040355;28;20502;-73
2023/01/06 06:20:03;;;;;;;1.67;0.90;;;7.60;99.90;;;;;;5020499;28;20119;-72
2023/01/06 06:22:35;;;;;;;1.83;1.10;;;7.50;99.90;;;;;;5038449;28;20026;-73
2023/01/06 06:25:04;;;;;;;2.08;1.13;;;7.50;99.90;;;;;;5041328;28;20432;-73
2023/01/06 06:27:33;;;;;;;3.63;1.00;;;7.50;99.90;;;;;;5027423;28;20028;-73
2023/01/06 06:30:11;;;;;;;2.03;1.33;;;7.40;99.90;;;;;;5026133;28;20021;-73
2023/01/06 06:32:36;;;;;;;2.47;1.13;;;7.50;99.90;;;;;;5031946;28;20021;-72
2023/01/06 06:35:06;;;;;;;1.90;1.15;;;7.50;99.90;;;;;;5051319;28;20517;-70
2023/01/06 06:37:34;;;;;;;3.05;1.17;;;7.40;99.90;;;;;;5031554;28;20028;-73
2023/01/06 06:40:00;;;;;;;1.83;1.00;;;7.40;99.90;;;;;;5030427;28;20529;-73
2023/01/06 06:42:26;;;;;;;3.95;1.77;;;7.50;99.90;;;;;;5042429;28;20120;-72
2023/01/06 06:44:54;;;;;;;4.03;2.53;;;7.50;99.90;;;;;;5044900;28;20099;-73
2023/01/06 06:47:26;;;;;;;6.25;3.70;;;7.40;99.90;;;;;;5032550;28;20397;-73
2023/01/06 06:49:54;;;;;;;4.82;2.80;;;7.40;99.90;;;;;;5048565;28;24027;-72
2023/01/06 06:52:29;;;;;;;8.05;3.97;;;7.40;99.90;;;;;;5036223;28;20055;-73
2023/01/06 06:54:54;;;;;;;8.57;3.50;;;7.40;99.90;;;;;;5050920;28;20021;-73
2023/01/06 06:57:32;;;;;;;4.10;1.73;;;7.30;99.90;;;;;;5047216;28;20021;-73
2023/01/06 07:00:04;;;;;;;2.85;1.67;;;7.30;99.90;;;;;;5047598;28;20390;-73
2023/01/06 07:02:32;;;;;;;3.90;2.05;;;7.30;99.90;;;;;;5043849;28;20024;-73
2023/01/06 07:04:58;;;;;;;4.88;2.00;;;7.20;99.90;;;;;;5046426;28;20036;-73
2023/01/06 07:07:26;;;;;;;3.95;1.80;;;7.20;99.90;;;;;;5030892;28;20389;-73
2023/01/06 07:09:55;;;;;;;2.85;1.73;;;7.10;99.90;;;;;;5054245;28;20513;-73
2023/01/06 07:12:24;;;;;;;4.50;1.95;;;7.10;99.90;;;;;;5037349;28;20092;-73
2023/01/06 07:14:50;;;;;;;3.20;1.77;;;7.10;99.90;;;;;;5044653;28;20082;-76
2023/01/06 07:17:15;;;;;;;4.47;2.28;;;7.10;99.90;;;;;;5036236;28;20032;-76
2023/01/06 07:19:41;;;;;;;2.50;1.70;;;7.10;99.90;;;;;;5047186;28;20503;-76
2023/01/06 07:22:07;;;;;;;4.95;2.08;;;7.00;99.90;;;;;;5050931;28;20021;-76
2023/01/06 07:24:32;;;;;;;5.70;2.53;;;7.00;99.90;;;;;;5036347;28;20029;-76
2023/01/06 07:26:58;;;;;;;4.20;2.35;;;7.00;99.90;;;;;;5032422;28;20029;-76
2023/01/06 07:29:29;;;;;;;2.50;1.65;;;7.00;99.90;;;;;;5048294;28;20030;-76
2023/01/06 07:31:55;;;;;;;3.75;2.00;;;7.00;99.90;;;;;;5031127;28;20401;-77
2023/01/06 07:34:21;;;;;;;4.70;2.00;;;7.10;99.90;;;;;;5047791;28;20033;-78
2023/01/06 07:36:47;;;;;;;2.90;1.83;;;7.10;99.90;;;;;;5045241;28;20025;-78
2023/01/06 07:39:12;;;;;;;3.55;1.55;;;7.10;99.90;;;;;;5052178;28;20036;-76
2023/01/06 07:41:38;;;;;;;3.58;1.98;;;7.10;99.90;;;;;;5042381;28;20148;-77
2023/01/06 07:44:03;;;;;;;4.07;2.35;;;7.20;99.90;;;;;;5034484;28;21082;-76
2023/01/06 07:46:35;;;;;;;2.80;1.70;;;7.20;99.90;;;;;;5037722;28;20068;-76
2023/01/06 07:49:00;;;;;;;2.60;1.75;;;7.30;99.90;;;;;;5044981;28;20029;-76
2023/01/06 07:51:26;;;;;;;3.30;1.70;;;7.20;99.90;;;;;;5052548;28;20032;-75
2023/01/06 07:54:01;;;;;;;2.75;1.20;;;7.30;99.90;;;;;;5031597;28;20032;-77
2023/01/06 07:56:26;;;;;;;2.78;1.75;;;7.40;99.90;;;;;;5037308;28;20492;-77
2023/01/06 07:58:58;;;;;;;3.08;1.95;;;7.40;99.90;;;;;;5049624;28;20025;-76
2023/01/06 08:01:23;;;;;;;2.22;1.60;;;7.50;99.90;;;;;;5044673;28;20103;-76
2023/01/06 08:03:52;;;;;;;4.47;2.17;;;7.50;99.90;;;;;;5035471;28;20096;-75
2023/01/06 08:06:18;;;;;;;3.45;2.30;;;7.50;99.90;;;;;;5043051;28;20053;-76
2023/01/06 08:08:43;;;;;;;3.63;2.53;;;7.60;99.90;;;;;;5052868;28;20040;-77
2023/01/06 08:11:11;;;;;;;5.05;2.65;;;7.70;99.90;;;;;;5044773;28;20388;-77
2023/01/06 08:13:37;;;;;;;3.90;2.25;;;7.70;99.90;;;;;;5031922;28;20025;-77
2023/01/06 08:16:07;;;;;;;3.40;2.10;;;7.80;99.90;;;;;;5038489;28;20037;-75
2023/01/06 08:18:39;;;;;;;2.42;1.52;;;7.90;99.90;;;;;;5060127;28;20112;-77
2023/01/06 08:21:11;;;;;;;2.92;2.10;;;7.90;99.90;;;;;;5048559;28;20515;-78
2023/01/06 08:23:37;;;;;;;4.22;2.95;;;7.90;99.90;;;;;;5053449;28;20028;-77
2023/01/06 08:26:10;;;;;;;4.28;2.15;;;8.00;99.90;;;;;;5044356;28;20032;-75
2023/01/06 08:28:35;;;;;;;2.60;1.60;;;8.10;99.90;;;;;;5031860;28;20041;-77
2023/01/06 08:31:02;;;;;;;4.05;1.77;;;8.10;99.90;;;;;;5049938;28;20100;-76
2023/01/06 08:33:33;;;;;;;2.38;1.48;;;8.10;99.90;;;;;;5023641;28;20108;-75
2023/01/06 08:36:00;;;;;;;2.42;1.60;;;8.20;99.90;;;;;;5018023;28;20389;-74
2023/01/06 08:38:30;;;;;;;2.42;1.40;;;8.20;99.90;;;;;;5049568;28;20025;-76
2023/01/06 08:40:56;;;;;;;3.15;1.55;;;8.20;99.90;;;;;;5050930;28;20401;-74
2023/01/06 08:43:31;;;;;;;2.05;1.50;;;8.30;99.90;;;;;;5048073;28;20024;-74
2023/01/06 08:46:01;;;;;;;2.75;1.58;;;8.30;99.90;;;;;;5035484;28;20489;-74
2023/01/06 08:48:28;;;;;;;2.28;1.70;;;8.30;99.90;;;;;;5038958;28;20060;-78
2023/01/06 08:51:10;;;;;;;3.63;1.48;;;8.40;99.90;;;;;;5044550;28;20158;-76
2023/01/06 08:53:36;;;;;;;3.15;1.55;;;8.40;99.90;;;;;;5052917;28;20029;-75
2023/01/06 08:56:20;;;;;;;2.38;1.67;;;8.40;99.90;;;;;;5039039;28;20105;-77
2023/01/06 08:58:57;;;;;;;2.22;1.42;;;8.40;99.90;;;;;;5047606;28;20089;-75
2023/01/06 09:01:24;;;;;;;2.38;1.48;;;8.40;99.90;;;;;;5037978;28;20294;-76
2023/01/06 09:03:50;;;;;;;4.63;2.10;;;8.40;99.90;;;;;;5033550;28;20036;-75
2023/01/06 09:06:18;;;;;;;4.18;1.95;;;8.40;99.90;;;;;;5048743;28;20022;-75
2023/01/06 09:08:44;;;;;;;3.92;2.35;;;8.40;99.90;;;;;;5034240;28;20036;-75
2023/01/06 09:11:10;;;;;;;4.32;2.38;;;8.40;99.90;;;;;;5022161;28;20386;-74
2023/01/06 09:13:39;;;;;;;4.13;2.10;;;8.40;99.90;;;;;;5041770;28;20440;-75
2023/01/06 09:16:06;;;;;;;4.95;2.50;;;8.50;99.90;;;;;;5047283;28;20025;-75
2023/01/06 09:18:32;;;;;;;4.93;2.70;;;8.50;99.90;;;;;;5030053;28;20037;-75
2023/01/06 09:21:04;;;;;;;4.78;2.58;;;8.50;99.90;;;;;;5026915;28;20077;-76
2023/01/06 09:23:41;;;;;;;5.30;2.45;;;8.60;99.90;;;;;;5054022;28;20029;-75
2023/01/06 09:26:08;;;;;;;3.38;2.25;;;8.60;99.90;;;;;;5038759;28;20108;-76
2023/01/06 09:28:33;;;;;;;4.25;2.20;;;8.60;99.90;;;;;;5051375;28;20033;-75
2023/01/06 09:31:02;;;;;;;4.22;2.55;;;8.70;99.90;;;;;;5048433;28;20080;-76
2023/01/06 09:33:37;;;;;;;3.72;2.40;;;8.70;99.90;;;;;;5051952;28;20469;-74
2023/01/06 09:36:03;;;;;;;6.65;2.70;;;8.70;99.90;;;;;;5045198;28;20500;-75
2023/01/06 09:38:31;;;;;;;5.93;2.50;;;8.80;99.90;;;;;;5037618;28;20308;-78
2023/01/06 09:41:18;;;;;;;4.10;2.40;;;8.80;99.90;;;;;;5040423;28;20060;-78
2023/01/06 09:44:35;;;;;;;8.70;2.78;;;8.90;99.90;;;;;;4981446;28;20036;-77
2023/01/06 09:47:02;;;;;;;5.88;2.45;;;8.90;99.90;;;;;;5066767;28;20043;-75
2023/01/06 09:49:48;;;;;;;4.15;2.80;;;9.00;99.90;;;;;;5069516;28;20401;-77
2023/01/06 09:52:24;;;;;;;3.67;2.53;;;9.00;99.90;;;;;;5065366;28;20064;-77
2023/01/06 09:55:28;;;;;;;4.35;2.33;;;9.10;99.90;;;;;;5071730;28;20055;-76
2023/01/06 09:58:15;;;;;;;3.65;2.10;;;9.10;99.90;;;;;;5030670;28;23569;-76
2023/01/06 10:00:52;;;;;;;2.08;1.33;;;9.20;99.90;;;;;;5065249;28;20056;-74
2023/01/06 10:03:20;;;;;;;2.50;1.50;;;9.30;99.90;;;;;;5064531;28;20021;-77
2023/01/06 10:06:04;;;;;;;2.38;1.13;;;9.40;99.90;;;;;;5044987;28;20122;-79
2023/01/06 10:08:49;;;;;;;;;;;9.40;99.90;;;;;;5051728;28;20032;-77
2023/01/06 10:11:30;;;;;;;0.93;0.63;;;9.50;99.90;;;;;;5059575;28;19908;-77
2023/01/06 10:14:37;;;;;;;2.35;0.90;;;9.60;99.90;;;;;;5056091;28;20477;-77
2023/01/06 10:17:31;;;;;;;1.48;0.70;;;9.70;99.90;;;;;;5030942;28;20040;-76
2023/01/06 10:20:35;;;;;;;0.95;0.52;;;9.70;99.90;;;;;;5049901;28;20131;-78
2023/01/06 10:23:30;;;;;;;1.00;0.70;;;9.80;99.90;;;;;;5044456;28;20520;-79
2023/01/06 10:26:11;;;;;;;1.25;0.60;;;9.80;99.90;;;;;;5072822;28;20051;-78
2023/01/06 10:28:53;;;;;;;1.13;0.40;;;9.90;99.90;;;;;;5079065;28;20028;-78
2023/01/06 10:31:29;;;;;;;0.98;0.50;;;10.00;99.90;;;;;;5058505;28;20032;-78
2023/01/06 10:33:56;;;;;;;0.52;0.40;;;10.10;99.90;;;;;;5077507;28;20460;-77
2023/01/06 10:36:43;;;;;;;0.57;0.40;;;10.20;99.90;;;;;;5081501;28;20032;-77
2023/01/06 10:39:18;;;;;;;1.20;0.70;;;10.20;99.90;;;;;;5077286;28;20023;-79
2023/01/06 10:45:13;;;;;;;1.30;0.50;;;10.30;99.90;;;;;;5083374;28;20105;-78
2023/01/06 10:47:41;;;;;;;0.63;0.45;;;10.30;99.90;;;;;;5059056;28;20050;-75
2023/01/06 10:50:15;;;;;;;0.90;0.40;;;10.30;99.90;;;;;;5074725;28;20043;-77
2023/01/06 10:52:45;;;;;;;1.80;0.50;;;10.30;99.90;;;;;;5077198;28;20484;-77
2023/01/06 10:55:30;;;;;;;0.73;0.40;;;10.30;99.90;;;;;;5057511;28;20036;-78
2023/01/06 10:58:04;;;;;;;0.40;0.30;;;10.30;99.90;;;;;;5048876;28;20107;-78
2023/01/06 11:00:33;;;;;;;1.02;0.70;;;10.20;99.90;;;;;;5048635;28;20121;-77
2023/01/06 11:03:11;;;;;;;1.75;0.50;;;10.20;99.90;;;;;;5067996;28;20025;-76
2023/01/06 11:05:37;;;;;;;0.93;0.50;;;10.20;99.90;;;;;;5049607;28;20033;-76
2023/01/06 11:08:07;;;;;;;1.10;0.57;;;10.20;99.90;;;;;;5057413;28;20029;-76
2023/01/06 11:10:53;;;;;;;0.93;0.50;;;10.20;99.90;;;;;;5056138;28;20093;-77
2023/01/06 11:13:27;;;;;;;0.68;0.40;;;10.30;99.90;;;;;;5069385;28;20079;-76
2023/01/06 11:15:54;;;;;;;0.57;0.43;;;10.30;99.90;;;;;;5045093;28;20436;-77
2023/01/06 11:18:27;;;;;;;1.42;0.50;;;10.30;99.90;;;;;;5073816;28;20078;-76
2023/01/06 11:21:15;;;;;;;0.50;0.40;;;10.40;99.90;;;;;;5068001;28;20124;-75
2023/01/06 11:23:42;;;;;;;1.25;0.50;;;10.50;99.90;;;;;;5051103;28;20550;-76
2023/01/06 11:26:11;;;;;;;1.88;0.60;;;10.60;99.90;;;;;;5065703;28;20024;-77
2023/01/06 11:28:37;;;;;;;1.38;0.40;;;10.60;99.90;;;;;;5045858;28;20050;-76
2023/01/06 11:31:27;;;;;;;8.95;0.90;;;10.70;99.90;;;;;;5060928;28;20028;-77
2023/01/06 11:34:01;;;;;;;2.30;0.88;;;10.70;99.90;;;;;;5069972;28;20027;-77
2023/01/06 11:36:45;;;;;;;1.88;0.65;;;10.70;99.90;;;;;;5073066;28;20028;-76
2023/01/06 11:39:22;;;;;;;0.60;0.32;;;10.70;99.90;;;;;;5070221;28;20032;-76
2023/01/06 11:41:50;;;;;;;0.45;0.35;;;10.70;99.90;;;;;;5057690;28;20095;-75
2023/01/06 11:44:37;;;;;;;0.60;0.30;;;10.60;99.90;;;;;;5058822;28;20036;-76
2023/01/06 11:47:07;;;;;;;1.58;0.45;;;10.60;99.90;;;;;;5046619;28;20105;-75
2023/01/06 11:49:52;;;;;;;1.02;0.38;;;10.60;99.90;;;;;;5053272;28;20025;-76
2023/01/06 11:52:32;;;;;;;0.80;0.38;;;10.60;99.90;;;;;;5060928;28;20024;-76
2023/01/06 11:55:01;;;;;;;0.55;0.30;;;10.70;99.90;;;;;;5067769;28;20029;-75
2023/01/06 11:57:35;;;;;;;0.80;0.38;;;10.70;99.90;;;;;;5044715;28;20036;-73
2023/01/06 12:00:35;;;;;;;0.95;0.57;;;10.70;99.90;;;;;;5042833;28;20021;-75
2023/01/06 12:03:40;;;;;;;0.60;0.40;;;10.80;99.90;;;;;;5041729;28;20401;-74
2023/01/06 12:06:18;;;;;;;1.75;0.63;;;10.80;99.90;;;;;;5053462;28;20032;-75
2023/01/06 12:09:08;;;;;;;1.02;0.63;;;10.90;99.90;;;;;;5059705;28;20032;-74
2023/01/06 12:11:54;;;;;;;1.13;0.70;;;10.90;99.90;;;;;;5072130;28;20803;-74
2023/01/06 12:14:29;;;;;;;1.30;0.70;;;10.90;99.90;;;;;;5069236;28;20052;-74
2023/01/06 12:16:54;;;;;;;0.65;0.38;;;11.00;99.90;;;;;;5077097;28;20024;-75
2023/01/06 12:19:46;;;;;;;0.75;0.50;;;11.00;99.90;;;;;;5067171;28;20032;-75
2023/01/06 12:22:35;;;;;;;0.63;0.38;;;11.10;99.90;;;;;;5069106;28;20029;-73
2023/01/06 12:25:10;;;;;;;1.27;0.50;;;11.10;99.90;;;;;;5043238;28;20032;-74
2023/01/06 12:28:00;;;;;;;1.67;0.90;;;11.10;99.90;;;;;;5072446;28;20041;-77
2023/01/06 12:30:25;;;;;;;1.10;0.45;;;11.10;99.90;;;;;;5050559;28;20032;-76
2023/01/06 12:32:55;;;;;;;1.10;0.60;;;11.10;99.90;;;;;;5058816;28;20021;-75
2023/01/06 12:35:25;;;;;;;1.55;0.90;;;11.10;99.90;;;;;;5054876;28;20034;-75
2023/01/06 12:38:21;;;;;;;2.20;0.80;;;11.00;99.90;;;;;;5066306;28;20024;-76
2023/01/06 12:40:57;;;;;;;1.80;0.70;;;11.10;99.90;;;;;;5072498;28;20064;-76
2023/01/06 12:43:32;;;;;;;2.28;1.40;;;11.10;99.90;;;;;;5044614;28;20052;-76
2023/01/06 12:46:16;;;;;;;1.17;0.75;;;11.10;99.90;;;;;;5048255;28;20029;-74
2023/01/06 12:49:32;;;;;;;6.20;1.60;;;11.10;99.90;;;;;;5057080;28;20108;-75
2023/01/06 12:52:03;;;;;;;3.05;0.82;;;11.10;99.90;;;;;;5030996;28;20018;-75
2023/01/06 12:54:36;;;;;;;9.05;1.23;;;11.10;99.90;;;;;;5065266;28;20036;-74
2023/01/06 12:57:22;;;;;;;0.70;0.50;;;11.10;99.90;;;;;;5061462;28;20040;-75
2023/01/06 13:00:11;;;;;;;0.90;0.50;;;11.20;99.90;;;;;;5053793;28;20029;-75
2023/01/06 13:02:59;;;;;;;1.98;0.90;;;11.30;99.90;;;;;;5069055;28;20023;-75
2023/01/06 13:05:30;;;;;;;1.20;0.52;;;11.30;99.90;;;;;;5071696;28;20024;-73
2023/01/06 13:08:37;;;;;;;1.27;0.60;;;11.20;99.90;;;;;;5067281;28;20028;-74
2023/01/06 13:11:37;;;;;;;1.73;0.57;;;11.30;99.90;;;;;;5066897;28;20062;-74
2023/01/06 13:14:48;;;;;;;0.60;0.40;;;11.20;99.90;;;;;;5067888;28;20108;-75
2023/01/06 13:17:16;;;;;;;0.55;0.43;;;11.20;99.90;;;;;;5041304;22;20050;-76
2023/01/06 13:19:52;;;;;;;0.73;0.47;;;11.20;99.90;;;;;;5045113;28;20641;-76
2023/01/06 13:22:42;;;;;;;0.57;0.47;;;11.20;99.90;;;;;;5041751;28;20113;-75
2023/01/06 13:25:38;;;;;;;0.93;0.50;;;11.10;99.90;;;;;;5039755;28;20753;-75
2023/01/06 13:28:18;;;;;;;1.70;0.85;;;11.10;99.90;;;;;;5027008;28;20516;-75
2023/01/06 13:31:05;;;;;;;1.27;0.70;;;11.10;99.90;;;;;;5007047;28;20029;-75
2023/01/06 13:34:09;;;;;;;0.90;0.50;;;11.10;99.90;;;;;;5028235;28;20053;-74
2023/01/06 13:37:13;;;;;;;2.58;0.82;;;11.10;99.90;;;;;;5026129;28;20021;-75
2023/01/06 13:39:55;;;;;;;1.70;0.80;;;11.20;99.90;;;;;;5022523;28;20044;-75
2023/01/06 13:42:33;;;;;;;0.80;0.50;;;11.20;99.90;;;;;;5024325;28;20109;-75